Time;durP1;ratioP1;P1;durP2;ratioP2;P2;SDS_P1;SDS_P2;PMS_P1;PMS_P2;Temp;Humidity;BMP_temperature;BMP_pressure;BME280_temperature;BME280_humidity;BME280_pressure;Samples;Min_cycle;Max_cycle;Signal;HPM_P1;HPM_P2
2023/04/26 00:04:27;;;;;;;0.47;0.20;;;;;;;4.04;100.00;101932.13;10367378;28;20038;-82
2023/04/26 00:09:30;;;;;;;0.00;0.00;;;;;;;4.54;100.00;101921.91;10357514;28;20049;-80
2023/04/26 00:14:32;;;;;;;0.00;0.00;;;;;;;4.04;100.00;101927.91;10344149;28;20049;-80
2023/04/26 00:19:34;;;;;;;0.05;0.05;;;;;;;4.64;100.00;101930.19;10366327;28;20046;-82
2023/04/26 00:24:35;;;;;;;0.05;0.05;;;;;;;4.28;100.00;101931.25;10366160;28;20504;-80
2023/04/26 00:29:37;;;;;;;0.80;0.35;;;;;;;3.72;100.00;101924.00;10353184;28;20122;-81
2023/04/26 00:34:39;;;;;;;0.10;0.10;;;;;;;3.74;100.00;101932.66;10357239;28;20072;-81
2023/04/26 00:39:40;;;;;;;0.00;0.00;;;;;;;3.34;100.00;101919.63;10354748;28;20500;-81
2023/04/26 00:44:42;;;;;;;0.15;0.15;;;;;;;3.45;100.00;101918.75;10368161;28;20445;-81
2023/04/26 00:49:44;;;;;;;0.00;0.00;;;;;;;3.44;100.00;101909.34;10367563;28;20571;-81
2023/04/26 00:54:47;;;;;;;0.20;0.20;;;;;;;3.39;100.00;101905.53;10351097;28;20088;-81
2023/04/26 00:59:49;;;;;;;0.03;0.03;;;;;;;3.48;100.00;101903.66;10350804;28;20128;-80
2023/04/26 01:04:50;;;;;;;0.00;0.00;;;;;;;3.64;100.00;101907.28;10348951;28;20049;-81
2023/04/26 01:09:53;;;;;;;0.00;0.00;;;;;;;3.54;100.00;101912.53;10390208;28;20045;-81
2023/04/26 01:14:56;;;;;;;0.85;0.30;;;;;;;3.75;100.00;101908.03;10365187;28;20053;-80
2023/04/26 01:19:57;;;;;;;0.00;0.00;;;;;;;3.65;100.00;101921.81;10380149;28;20053;-82
2023/04/26 01:25:03;;;;;;;0.20;0.15;;;;;;;3.72;100.00;101918.03;10380057;28;20049;-81
2023/04/26 01:30:08;;;;;;;0.45;0.45;;;;;;;3.96;100.00;101914.63;10364273;28;20038;-81
2023/04/26 01:35:10;;;;;;;0.38;0.15;;;;;;;4.06;100.00;101921.25;10354385;28;20137;-81
2023/04/26 01:40:12;;;;;;;0.55;0.50;;;;;;;3.90;100.00;101928.63;10379602;28;20042;-81
2023/04/26 01:45:14;;;;;;;0.10;0.10;;;;;;;3.65;100.00;101929.47;10371334;28;20473;-81
2023/04/26 01:50:34;;;;;;;0.15;0.15;;;;;;;3.36;100.00;101923.19;10370505;28;20520;-82
2023/04/26 01:55:36;;;;;;;0.52;0.47;;;;;;;3.81;100.00;101914.47;10372430;28;20061;-81
2023/04/26 02:00:37;;;;;;;0.20;0.20;;;;;;;3.69;100.00;101918.69;10357760;28;20144;-81
2023/04/26 02:05:39;;;;;;;1.88;1.23;;;;;;;3.69;100.00;101922.91;10358918;28;20100;-82
2023/04/26 02:10:40;;;;;;;1.38;0.30;;;;;;;3.61;100.00;101922.38;10359591;28;20080;-81
2023/04/26 02:15:45;;;;;;;1.00;0.45;;;;;;;3.69;100.00;101918.69;10354956;28;20547;-80
2023/04/26 02:20:47;;;;;;;0.00;0.00;;;;;;;4.08;100.00;101918.81;10371625;28;20049;-81
2023/04/26 02:25:48;;;;;;;0.43;0.28;;;;;;;4.51;100.00;101919.16;10370297;28;20103;-80
2023/04/26 02:30:50;;;;;;;0.17;0.17;;;;;;;4.65;100.00;101922.66;10356922;28;20099;-80
2023/04/26 02:35:52;;;;;;;0.00;0.00;;;;;;;4.37;100.00;101928.44;10385030;28;20120;-80
2023/04/26 02:40:58;;;;;;;0.22;0.22;;;;;;;4.13;100.00;101925.97;10364815;28;20042;-81
2023/04/26 02:46:00;;;;;;;0.00;0.00;;;;;;;4.31;100.00;101922.91;10360951;28;20040;-81
2023/04/26 02:51:02;;;;;;;2.33;0.30;;;;;;;3.63;100.00;101934.44;10366490;28;20073;-80
2023/04/26 02:56:05;;;;;;;0.32;0.32;;;;;;;3.34;100.00;101929.81;10359013;28;20693;-80
2023/04/26 03:01:07;;;;;;;0.95;0.52;;;;;;;3.69;100.00;101921.22;10359128;28;20565;-80
2023/04/26 03:06:09;;;;;;;1.00;0.75;;;;;;;3.23;100.00;101918.84;10369903;28;20129;-82
2023/04/26 03:11:10;;;;;;;0.00;0.00;;;;;;;3.87;100.00;101929.28;10376631;28;20044;-80
2023/04/26 03:16:12;;;;;;;0.40;0.38;;;;;;;3.50;100.00;101931.78;10368846;28;20505;-80
2023/04/26 03:21:14;;;;;;;0.43;0.43;;;;;;;3.12;100.00;101925.72;10355841;28;20042;-80
2023/04/26 03:26:16;;;;;;;0.25;0.15;;;;;;;3.60;100.00;101928.25;10353222;28;20551;-80
2023/04/26 03:31:19;;;;;;;2.40;0.85;;;;;;;2.80;100.00;101928.47;10368053;28;20120;-80
2023/04/26 03:36:21;;;;;;;0.20;0.20;;;;;;;2.97;100.00;101911.88;10351552;28;20039;-80
2023/04/26 03:41:23;;;;;;;0.20;0.20;;;;;;;2.88;100.00;101908.66;10354882;28;20041;-82
2023/04/26 03:46:27;;;;;;;1.95;0.65;;;;;;;2.81;100.00;101905.66;10365416;28;20182;-81
2023/04/26 03:51:28;;;;;;;1.17;1.08;;;;;;;3.77;100.00;101912.47;10360151;28;20478;-81
2023/04/26 03:56:30;;;;;;;0.10;0.10;;;;;;;3.85;100.00;101899.38;10348066;28;20104;-81
2023/04/26 04:01:32;;;;;;;0.10;0.05;;;;;;;3.33;100.00;101902.56;10371760;28;20052;-80
2023/04/26 04:06:34;;;;;;;0.30;0.30;;;;;;;3.12;100.00;101891.75;10352700;28;20042;-80
2023/04/26 04:11:36;;;;;;;0.00;0.00;;;;;;;3.10;100.00;101899.25;10353525;28;20504;-81
2023/04/26 04:16:37;;;;;;;0.75;0.40;;;;;;;3.15;100.00;101895.41;10350457;28;20044;-81
2023/04/26 04:21:39;;;;;;;0.15;0.15;;;;;;;2.43;100.00;101903.69;10367824;28;20038;-80
2023/04/26 04:26:41;;;;;;;0.80;0.57;;;;;;;2.19;100.00;101916.34;10353716;28;20523;-80
2023/04/26 04:31:43;;;;;;;0.40;0.30;;;;;;;2.69;100.00;101908.19;10365023;28;20136;-80
2023/04/26 04:36:45;;;;;;;0.75;0.45;;;;;;;2.73;100.00;101916.94;10362798;28;20050;-80
2023/04/26 04:41:47;;;;;;;0.20;0.20;;;;;;;2.46;100.00;101921.75;10350746;28;20056;-80
2023/04/26 04:46:51;;;;;;;0.40;0.40;;;;;;;2.51;100.00;101919.56;10368523;28;20066;-82
2023/04/26 04:51:53;;;;;;;0.95;0.50;;;;;;;2.78;100.00;101917.28;10359115;28;20050;-81
2023/04/26 04:56:56;;;;;;;0.93;0.93;;;;;;;3.30;100.00;101922.75;10356203;28;20112;-81
2023/04/26 05:01:58;;;;;;;0.43;0.43;;;;;;;2.95;100.00;101926.16;10364381;28;20052;-81
2023/04/26 05:07:00;;;;;;;1.20;0.30;;;;;;;3.95;100.00;101917.09;10385228;28;20100;-81
2023/04/26 05:12:03;;;;;;;0.10;0.10;;;;;;;4.31;100.00;101922.06;10350454;28;20105;-80
2023/04/26 05:17:05;;;;;;;0.10;0.10;;;;;;;4.10;100.00;101923.25;10382917;28;20064;-81
2023/04/26 05:22:07;;;;;;;1.25;0.75;;;;;;;4.26;100.00;101920.06;10350559;28;20080;-81
2023/04/26 05:27:09;;;;;;;3.38;1.77;;;;;;;4.60;100.00;101927.44;10374533;28;20045;-81
2023/04/26 05:32:26;;;;;;;0.30;0.30;;;;;;;4.90;100.00;101926.81;10373622;28;20127;-80
2023/04/26 05:37:50;;;;;;;0.68;0.50;;;;;;;5.40;100.00;101926.63;10361561;28;20416;-81
2023/04/26 05:42:56;;;;;;;1.98;0.75;;;;;;;5.27;100.00;101933.41;10357076;28;20046;-81
2023/04/26 05:47:59;;;;;;;0.45;0.45;;;;;;;5.21;100.00;101939.00;10355514;28;20085;-80
2023/04/26 05:53:01;;;;;;;1.75;0.70;;;;;;;5.77;100.00;101939.97;10347005;28;20049;-81
2023/04/26 05:58:03;;;;;;;0.20;0.20;;;;;;;5.67;100.00;101947.06;10359429;28;20069;-82
2023/04/26 06:03:05;;;;;;;1.00;0.60;;;;;;;5.91;100.00;101946.81;10392874;28;20038;-82
2023/04/26 06:08:07;;;;;;;0.52;0.47;;;;;;;6.40;100.00;101953.16;10359832;28;20050;-81
2023/04/26 06:13:09;;;;;;;0.47;0.47;;;;;;;6.55;100.00;101954.06;10359071;28;20046;-82
2023/04/26 06:18:11;;;;;;;0.65;0.65;;;;;;;7.37;100.00;101945.91;10337536;28;20062;-82
2023/04/26 06:23:13;;;;;;;0.15;0.15;;;;;;;7.50;100.00;101942.38;10341587;28;20057;-81
2023/04/26 06:28:14;;;;;;;0.98;0.68;;;;;;;7.27;100.00;101952.22;10352328;28;20393;-81
2023/04/26 06:33:16;;;;;;;0.90;0.80;;;;;;;7.58;100.00;101955.63;10348359;28;20053;-81
2023/04/26 06:38:18;;;;;;;0.15;0.10;;;;;;;8.21;100.00;101953.88;10358175;28;20045;-80
2023/04/26 06:43:20;;;;;;;0.85;0.30;;;;;;;8.44;100.00;101954.19;10376455;28;20132;-82
2023/04/26 06:48:30;;;;;;;2.17;0.77;;;;;;;8.44;100.00;101951.63;10365969;28;20045;-80
2023/04/26 06:53:32;;;;;;;0.20;0.20;;;;;;;9.25;100.00;101942.75;10378073;28;20050;-82
2023/04/26 06:58:34;;;;;;;1.05;1.05;;;;;;;9.77;100.00;101940.06;10392167;28;20069;-81
2023/04/26 07:03:35;;;;;;;0.68;0.40;;;;;;;9.48;100.00;101937.03;10348859;28;20125;-81
2023/04/26 07:08:37;;;;;;;0.55;0.30;;;;;;;10.71;100.00;101945.03;10361511;28;20046;-81
2023/04/26 07:13:38;;;;;;;0.28;0.17;;;;;;;10.41;100.00;101942.91;10353713;28;20117;-81
2023/04/26 07:18:40;;;;;;;2.55;2.05;;;;;;;9.73;100.00;101948.44;10358065;28;20053;-81
2023/04/26 07:23:41;;;;;;;1.75;0.43;;;;;;;9.95;100.00;101955.47;10387968;28;20577;-80
2023/04/26 07:28:43;;;;;;;0.13;0.13;;;;;;;9.86;100.00;101952.47;10362310;28;20050;-81
2023/04/26 07:33:45;;;;;;;0.43;0.15;;;;;;;9.69;100.00;101946.53;10342722;28;20141;-82
2023/04/26 07:38:46;;;;;;;0.52;0.10;;;;;;;10.01;100.00;101957.44;10363496;28;20068;-81
2023/04/26 07:43:47;;;;;;;0.10;0.10;;;;;;;10.78;100.00;101947.91;10378530;28;20670;-81
2023/04/26 07:48:49;;;;;;;0.00;0.00;;;;;;;10.75;100.00;101954.63;10370263;28;20473;-81
2023/04/26 07:53:51;;;;;;;0.10;0.10;;;;;;;11.53;100.00;101945.69;10379408;28;20050;-81
2023/04/26 07:58:52;;;;;;;0.00;0.00;;;;;;;11.32;100.00;101951.78;10386659;28;20091;-83
2023/04/26 08:03:54;;;;;;;0.15;0.15;;;;;;;10.26;100.00;101953.34;10370742;28;20162;-83
2023/04/26 08:08:56;;;;;;;0.10;0.00;;;;;;;11.70;100.00;101944.66;10370006;28;20057;-81
2023/04/26 08:13:58;;;;;;;1.45;0.15;;;;;;;11.67;100.00;101944.53;10390185;28;20738;-82
2023/04/26 08:19:01;;;;;;;0.00;0.00;;;;;;;12.03;100.00;101939.00;10375640;28;20070;-82
2023/04/26 08:24:03;;;;;;;0.98;0.45;;;;;;;11.66;100.00;101950.50;10364253;28;20050;-81
2023/04/26 08:29:05;;;;;;;0.10;0.10;;;;;;;11.48;100.00;101948.09;10378937;28;20077;-83
2023/04/26 08:34:12;;;;;;;0.40;0.22;;;;;;;10.27;100.00;101968.00;10382021;28;20503;-82
2023/04/26 08:39:16;;;;;;;0.38;0.30;;;;;;;10.07;100.00;101965.44;10374766;28;20034;-82
2023/04/26 08:44:24;;;;;;;0.00;0.00;;;;;;;10.44;100.00;101972.25;10383412;28;20501;-81
2023/04/26 08:49:34;;;;;;;0.00;0.00;;;;;;;10.57;100.00;101983.06;10341321;28;20058;-80
2023/04/26 08:54:37;;;;;;;0.20;0.00;;;;;;;10.07;100.00;101974.84;10363909;28;20033;-80
2023/04/26 08:59:38;;;;;;;0.35;0.20;;;;;;;10.55;100.00;101969.25;10360265;28;20303;-81
2023/04/26 09:04:40;;;;;;;0.00;0.00;;;;;;;10.57;100.00;101975.34;10367131;28;20696;-82
2023/04/26 09:09:46;;;;;;;0.00;0.00;;;;;;;11.56;100.00;101966.47;10369789;28;20048;-81
2023/04/26 09:14:48;;;;;;;4.47;0.38;;;;;;;11.89;100.00;101961.72;10388398;28;20046;-81
2023/04/26 09:19:49;;;;;;;0.00;0.00;;;;;;;11.66;100.00;101957.38;10395286;28;20496;-83
2023/04/26 09:24:51;;;;;;;0.20;0.17;;;;;;;11.29;100.00;101961.97;10396424;28;20057;-82
2023/04/26 09:29:58;;;;;;;0.00;0.00;;;;;;;11.87;100.00;101957.34;10366158;28;20077;-82
2023/04/26 09:35:00;;;;;;;0.00;0.00;;;;;;;13.10;93.21;101944.34;10376529;28;20049;-81
2023/04/26 09:40:01;;;;;;;0.40;0.20;;;;;;;13.64;96.86;101941.75;10379831;28;20462;-83
2023/04/26 09:45:06;;;;;;;0.20;0.10;;;;;;;12.49;97.19;101939.78;10382098;28;20042;-81
2023/04/26 09:50:08;;;;;;;0.10;0.10;;;;;;;11.03;99.93;101948.03;10352286;28;20073;-81
2023/04/26 09:55:09;;;;;;;0.13;0.13;;;;;;;12.22;97.36;101939.69;10356421;28;20056;-81
2023/04/26 10:00:20;;;;;;;;;;;;;;;13.68;94.26;101934.97;10346725;28;20103;-81
2023/04/26 10:05:22;;;;;;;0.10;0.10;;;;;;;13.05;93.57;101925.22;10353998;28;20730;-81
2023/04/26 10:10:23;;;;;;;0.00;0.00;;;;;;;11.85;90.22;101935.72;10401102;28;20041;-82
2023/04/26 10:15:25;;;;;;;0.00;0.00;;;;;;;13.10;91.92;101923.66;10372793;28;20512;-81
2023/04/26 10:20:28;;;;;;;0.00;0.00;;;;;;;13.00;93.00;101925.94;10352876;28;20055;-82
2023/04/26 10:25:37;;;;;;;0.93;0.47;;;;;;;11.64;91.27;101935.78;10354176;28;20142;-82
2023/04/26 10:30:56;;;;;;;0.00;0.00;;;;;;;12.73;88.96;101937.97;10379040;28;20436;-82
2023/04/26 10:36:00;;;;;;;0.00;0.00;;;;;;;12.81;86.29;101918.41;10368748;28;20044;-81
2023/04/26 10:41:30;;;;;;;0.00;0.00;;;;;;;12.45;81.36;101921.53;10355413;28;20052;-81
2023/04/26 10:46:37;;;;;;;;;;;;;;;12.45;87.02;101921.53;10382139;28;20072;-81
2023/04/26 10:51:38;;;;;;;0.00;0.00;;;;;;;12.77;94.78;101909.69;10369779;28;19925;-81
2023/04/26 10:56:41;;;;;;;0.08;0.05;;;;;;;12.59;92.57;101909.06;10368739;28;20807;-81
2023/04/26 11:01:42;;;;;;;0.00;0.00;;;;;;;13.41;87.42;101909.97;10368915;28;20081;-81
2023/04/26 11:06:48;;;;;;;0.00;0.00;;;;;;;12.44;86.67;101914.59;10369223;28;20061;-82
2023/04/26 11:11:52;;;;;;;0.10;0.10;;;;;;;12.57;87.52;101916.75;10352943;28;20512;-81
2023/04/26 11:16:54;;;;;;;0.20;0.20;;;;;;;12.44;88.34;101915.47;10378249;28;20049;-82
2023/04/26 11:21:56;;;;;;;0.45;0.25;;;;;;;12.10;91.54;101921.19;10368549;28;20050;-82
2023/04/26 11:26:58;;;;;;;0.30;0.28;;;;;;;11.78;92.91;101924.28;10373641;28;20048;-82
2023/04/26 11:31:59;;;;;;;0.00;0.00;;;;;;;12.20;93.55;101925.81;10353263;28;20402;-81
2023/04/26 11:37:02;;;;;;;0.68;0.40;;;;;;;11.71;94.89;101927.47;10356449;28;20472;-81
2023/04/26 11:42:09;;;;;;;0.22;0.17;;;;;;;11.54;95.57;101926.81;10383478;28;20042;-82
2023/04/26 11:47:10;;;;;;;0.63;0.63;;;;;;;11.14;97.86;101921.00;10353388;28;20116;-81
2023/04/26 11:52:12;;;;;;;0.10;0.10;;;;;;;10.41;100.00;101936.03;10386492;28;20046;-81
2023/04/26 11:57:16;;;;;;;0.00;0.00;;;;;;;10.70;100.00;101926.06;10365876;28;20049;-82
2023/04/26 12:02:22;;;;;;;0.10;0.10;;;;;;;11.33;100.00;101921.69;10394956;28;20448;-82
2023/04/26 12:07:25;;;;;;;0.15;0.03;;;;;;;10.66;97.95;101933.63;10376385;28;20038;-80
2023/04/26 12:12:26;;;;;;;0.08;0.08;;;;;;;11.31;100.00;101928.53;10375848;28;20046;-82
2023/04/26 12:17:28;;;;;;;0.08;0.08;;;;;;;11.18;98.05;101922.84;10344797;28;20045;-80
2023/04/26 12:22:29;;;;;;;0.08;0.08;;;;;;;11.43;95.79;101926.41;10355501;28;20136;-81
2023/04/26 12:27:31;;;;;;;0.10;0.00;;;;;;;12.33;97.33;101917.69;10353556;28;20049;-81
2023/04/26 12:32:32;;;;;;;0.22;0.10;;;;;;;12.71;91.62;101919.84;10363230;28;20065;-83
2023/04/26 12:37:34;;;;;;;0.00;0.00;;;;;;;12.77;92.29;101925.19;10372831;28;20689;-82
2023/04/26 12:42:36;;;;;;;0.10;0.10;;;;;;;12.96;88.36;101916.34;10381838;28;20117;-82
2023/04/26 12:47:37;;;;;;;1.35;0.47;;;;;;;12.87;89.10;101921.22;10383955;28;20037;-81
2023/04/26 12:52:40;;;;;;;0.17;0.17;;;;;;;13.65;89.48;101911.56;10380749;28;20048;-81
2023/04/26 12:57:43;;;;;;;0.00;0.00;;;;;;;13.28;83.91;101913.91;10381830;28;20064;-81
2023/04/26 13:02:45;;;;;;;0.10;0.10;;;;;;;13.67;91.70;101907.31;10373759;28;20056;-81
2023/04/26 13:07:47;;;;;;;0.00;0.00;;;;;;;13.29;89.90;101907.88;10368237;28;20248;-81
2023/04/26 13:12:48;;;;;;;0.00;0.00;;;;;;;12.68;88.61;101918.03;10380625;28;20128;-83
2023/04/26 13:17:50;;;;;;;0.00;0.00;;;;;;;13.90;87.73;101910.53;10371978;28;20047;-83
2023/04/26 13:22:51;;;;;;;0.20;0.20;;;;;;;12.99;85.78;101911.25;10373092;28;20069;-83
2023/04/26 13:27:54;;;;;;;0.10;0.10;;;;;;;12.27;89.27;101922.63;10357685;28;20129;-82
2023/04/26 13:32:56;;;;;;;0.10;0.10;;;;;;;12.23;92.42;101925.94;10394927;28;20046;-82
2023/04/26 13:38:00;;;;;;;0.00;0.00;;;;;;;12.96;86.41;101915.44;10367956;28;20046;-82
2023/04/26 13:43:02;;;;;;;0.32;0.25;;;;;;;12.52;88.38;101924.38;10379415;28;20045;-84
2023/04/26 13:48:03;;;;;;;0.55;0.55;;;;;;;12.96;91.42;101916.34;10375640;28;20132;-83
2023/04/26 13:53:05;;;;;;;0.00;0.00;;;;;;;12.35;92.92;101925.50;10361127;28;20045;-82
2023/04/26 13:58:07;;;;;;;0.00;0.00;;;;;;;12.72;92.84;101926.75;10364729;28;20525;-83
2023/04/26 14:03:08;;;;;;;0.45;0.13;;;;;;;12.96;89.13;101926.69;10382396;28;20069;-83
2023/04/26 14:08:11;;;;;;;0.20;0.10;;;;;;;13.20;89.79;101924.81;10369352;28;20038;-82
2023/04/26 14:13:14;;;;;;;0.00;0.00;;;;;;;12.90;83.45;101918.72;10394670;28;20136;-82
2023/04/26 14:18:16;;;;;;;0.00;0.00;;;;;;;12.89;88.63;101924.72;10361853;28;20034;-81
2023/04/26 14:23:18;;;;;;;0.80;0.47;;;;;;;13.04;87.64;101924.31;10359130;28;20420;-82
2023/04/26 14:28:19;;;;;;;0.30;0.25;;;;;;;12.69;90.91;101924.06;10397430;28;20045;-81
2023/04/26 14:33:21;;;;;;;1.88;0.57;;;;;;;12.28;87.08;101929.56;10384180;28;20050;-81
2023/04/26 14:38:25;;;;;;;0.00;0.00;;;;;;;12.65;85.56;101928.25;10398520;28;20565;-81
2023/04/26 14:43:27;;;;;;;0.10;0.10;;;;;;;12.90;89.74;101918.72;10397896;28;20057;-82
2023/04/26 14:48:28;;;;;;;0.10;0.10;;;;;;;12.50;88.36;101914.81;10394680;28;20045;-83
2023/04/26 14:53:30;;;;;;;0.20;0.20;;;;;;;12.38;85.17;101913.56;10365240;28;20468;-81
2023/04/26 14:58:32;;;;;;;0.08;0.08;;;;;;;11.93;89.86;101913.66;10382027;28;20618;-81
2023/04/26 15:03:33;;;;;;;0.05;0.05;;;;;;;12.95;88.55;101903.38;10375462;28;20120;-81
2023/04/26 15:08:36;;;;;;;0.90;0.32;;;;;;;12.76;84.96;101897.59;10375487;28;20049;-80
2023/04/26 15:13:37;;;;;;;0.50;0.32;;;;;;;12.63;86.83;101908.34;10372042;28;20050;-80
2023/04/26 15:18:39;;;;;;;2.85;0.55;;;;;;;13.05;87.89;101905.41;10371429;28;20133;-80
2023/04/26 15:23:40;;;;;;;0.65;0.30;;;;;;;13.29;88.78;101900.09;10388558;28;20116;-79
2023/04/26 15:28:41;;;;;;;0.35;0.10;;;;;;;12.98;86.10;101893.09;10389252;28;20483;-80
2023/04/26 15:33:43;;;;;;;0.00;0.00;;;;;;;12.63;85.66;101891.13;10387467;28;20055;-81
2023/04/26 15:38:47;;;;;;;0.10;0.10;;;;;;;11.84;87.08;101901.25;10351333;28;20057;-81
2023/04/26 15:43:54;;;;;;;0.10;0.10;;;;;;;12.85;85.62;101892.72;10383950;28;20492;-81
2023/04/26 15:48:56;;;;;;;2.33;0.35;;;;;;;12.13;89.83;101898.00;10359182;28;20053;-82
2023/04/26 15:53:57;;;;;;;0.10;0.03;;;;;;;12.40;81.11;101897.25;10360308;28;20121;-80
2023/04/26 15:58:59;;;;;;;0.43;0.30;;;;;;;13.06;81.84;101895.94;10371421;28;20519;-82
2023/04/26 16:04:00;;;;;;;0.20;0.10;;;;;;;12.89;77.54;101898.88;10365908;28;20046;-80
2023/04/26 16:09:06;;;;;;;0.10;0.10;;;;;;;12.18;84.49;101899.03;10377057;28;20034;-81
2023/04/26 16:14:25;;;;;;;0.00;0.00;;;;;;;12.08;88.56;101909.91;10375455;28;20038;-80
2023/04/26 16:19:26;;;;;;;0.20;0.20;;;;;;;12.33;89.12;101897.00;10367723;28;20121;-80
2023/04/26 16:24:28;;;;;;;0.75;0.50;;;;;;;12.08;91.85;101902.16;10369198;28;20048;-80
2023/04/26 16:29:29;;;;;;;0.00;0.00;;;;;;;11.69;94.27;101911.91;10352217;28;20061;-81
2023/04/26 16:34:31;;;;;;;0.00;0.00;;;;;;;12.02;97.86;101901.13;10350081;28;20050;-82
2023/04/26 16:39:33;;;;;;;0.63;0.13;;;;;;;10.55;100.00;101915.13;10334325;28;20044;-81
2023/04/26 16:44:34;;;;;;;0.32;0.30;;;;;;;10.41;100.00;101918.00;10369324;28;20045;-81
2023/04/26 16:49:36;;;;;;;3.65;0.95;;;;;;;10.38;100.00;101917.88;10372907;28;20120;-82
2023/04/26 16:54:37;;;;;;;0.00;0.00;;;;;;;10.15;100.00;101915.16;10357724;28;20591;-82
2023/04/26 16:59:39;;;;;;;5.43;3.10;;;;;;;10.35;100.00;101922.88;10378795;28;20061;-81
2023/04/26 17:04:40;;;;;;;0.00;0.00;;;;;;;10.37;100.00;101918.69;10373026;28;20132;-82
2023/04/26 17:09:42;;;;;;;0.25;0.22;;;;;;;10.22;100.00;101929.16;10345457;28;20051;-82
2023/04/26 17:14:44;;;;;;;2.42;0.52;;;;;;;10.01;100.00;101931.69;10383159;28;20100;-81
2023/04/26 17:19:45;;;;;;;0.00;0.00;;;;;;;10.18;100.00;101931.53;10394588;28;20055;-81
2023/04/26 17:24:47;;;;;;;0.20;0.20;;;;;;;10.57;100.00;101926.38;10360582;28;20048;-82
2023/04/26 17:29:48;;;;;;;0.50;0.20;;;;;;;10.10;100.00;101918.34;10397557;28;20069;-81
2023/04/26 17:34:50;;;;;;;0.30;0.17;;;;;;;10.07;100.00;101918.19;10394513;28;20140;-81
2023/04/26 17:39:51;;;;;;;0.00;0.00;;;;;;;10.09;100.00;101921.72;10397196;28;20047;-81
2023/04/26 17:44:53;;;;;;;0.22;0.15;;;;;;;10.11;100.00;101936.41;10381402;28;20061;-81
2023/04/26 17:49:55;;;;;;;0.60;0.20;;;;;;;10.42;100.00;101936.94;10364213;28;20049;-81
2023/04/26 17:54:57;;;;;;;12.90;0.65;;;;;;;10.21;100.00;101937.69;10363409;28;20136;-82
2023/04/26 17:59:58;;;;;;;0.73;0.40;;;;;;;10.13;100.00;101937.38;10405218;28;20120;-81
2023/04/26 18:05:00;;;;;;;1.20;0.43;;;;;;;9.94;100.00;101939.97;10405191;28;20142;-83
2023/04/26 18:10:02;;;;;;;0.03;0.03;;;;;;;10.13;100.00;101939.06;10407424;28;20132;-81
2023/04/26 18:15:05;;;;;;;0.75;0.75;;;;;;;10.02;100.00;101941.16;10383209;28;20053;-81
2023/04/26 18:20:07;;;;;;;0.03;0.03;;;;;;;9.83;100.00;101945.47;10382801;28;20092;-81
2023/04/26 18:25:08;;;;;;;0.10;0.10;;;;;;;9.83;100.00;101945.47;10380201;28;20532;-81
2023/04/26 18:30:11;;;;;;;0.00;0.00;;;;;;;9.73;100.00;101953.59;10365711;28;20128;-82
2023/04/26 18:35:13;;;;;;;0.00;0.00;;;;;;;9.50;100.00;101953.38;10396996;28;20080;-81
2023/04/26 18:40:14;;;;;;;0.80;0.13;;;;;;;9.66;100.00;101954.09;10352072;28;20053;-81
2023/04/26 18:45:16;;;;;;;0.00;0.00;;;;;;;9.66;100.00;101962.72;10380050;28;20046;-80
2023/04/26 18:50:17;;;;;;;0.30;0.20;;;;;;;9.89;100.00;101962.00;10394451;28;20124;-81
2023/04/26 18:55:19;;;;;;;0.00;0.00;;;;;;;9.92;100.00;101964.75;10379107;28;20141;-81
2023/04/26 19:00:20;;;;;;;0.20;0.20;;;;;;;9.46;100.00;101972.06;10408332;28;20118;-81
2023/04/26 19:05:22;;;;;;;0.55;0.32;;;;;;;9.75;100.00;101969.97;10363596;28;20415;-81
2023/04/26 19:10:24;;;;;;;0.13;0.05;;;;;;;9.84;100.00;101966.94;10385040;28;20572;-81
2023/04/26 19:15:26;;;;;;;1.30;0.30;;;;;;;9.06;100.00;101975.28;10389841;28;20074;-81
2023/04/26 19:20:27;;;;;;;0.98;0.35;;;;;;;9.40;100.00;101974.34;10371345;28;20576;-81
2023/04/26 19:25:29;;;;;;;0.00;0.00;;;;;;;9.11;100.00;101990.94;10368836;28;20595;-81
2023/04/26 19:30:31;;;;;;;0.30;0.30;;;;;;;9.27;100.00;101990.00;10381295;28;20058;-82
2023/04/26 19:35:32;;;;;;;0.10;0.10;;;;;;;9.24;100.00;101988.16;10369221;28;20089;-81
2023/04/26 19:40:33;;;;;;;0.20;0.20;;;;;;;9.17;100.00;101994.69;10363112;28;20042;-81
2023/04/26 19:45:36;;;;;;;0.65;0.55;;;;;;;9.39;100.00;101988.03;10388786;28;20070;-81
2023/04/26 19:50:43;;;;;;;0.00;0.00;;;;;;;9.56;100.00;101990.53;10356178;28;20168;-82
2023/04/26 19:55:44;;;;;;;0.00;0.00;;;;;;;9.64;100.00;101994.34;10369934;28;20045;-81
2023/04/26 20:00:46;;;;;;;0.80;0.40;;;;;;;9.45;100.00;101993.47;10366761;28;20045;-81
2023/04/26 20:05:48;;;;;;;0.00;0.00;;;;;;;9.26;100.00;102001.09;10366683;28;20068;-81
2023/04/26 20:10:49;;;;;;;0.08;0.08;;;;;;;9.26;100.00;102006.25;10362335;28;20049;-81
2023/04/26 20:15:51;;;;;;;0.00;0.00;;;;;;;10.23;100.00;102002.19;10382980;28;20153;-82
2023/04/26 20:20:53;;;;;;;0.15;0.15;;;;;;;10.32;100.00;102010.28;10373186;28;20424;-80
2023/04/26 20:25:54;;;;;;;0.00;0.00;;;;;;;9.88;100.00;102009.16;10338062;28;1013597;-81
2023/04/26 20:30:56;;;;;;;0.00;0.00;;;;;;;8.70;100.00;102024.00;10364687;28;20049;-81
2023/04/26 20:35:58;;;;;;;0.00;0.00;;;;;;;8.39;100.00;102027.50;10370224;28;20046;-81
2023/04/26 20:40:59;;;;;;;0.00;0.00;;;;;;;8.69;100.00;102025.72;10378033;28;20056;-81
2023/04/26 20:46:00;;;;;;;0.20;0.20;;;;;;;8.77;100.00;102026.09;10384898;28;20044;-81
2023/04/26 20:51:02;;;;;;;0.00;0.00;;;;;;;8.31;100.00;102021.09;10391191;28;20049;-80
2023/04/26 20:56:04;;;;;;;0.00;0.00;;;;;;;8.32;100.00;102033.13;10382086;28;20397;-81
2023/04/26 21:01:05;;;;;;;0.08;0.05;;;;;;;8.08;100.00;102039.59;10400886;28;20516;-81
2023/04/26 21:06:07;;;;;;;0.00;0.00;;;;;;;8.00;100.00;102037.44;10358240;28;20049;-81
2023/04/26 21:11:09;;;;;;;0.20;0.17;;;;;;;7.19;100.00;102038.03;10396669;28;20108;-82
2023/04/26 21:16:11;;;;;;;0.63;0.63;;;;;;;7.29;100.00;102039.47;10384000;28;20504;-81
2023/04/26 21:21:12;;;;;;;0.00;0.00;;;;;;;6.98;100.00;102048.81;10395498;28;20046;-81
2023/04/26 21:26:14;;;;;;;1.45;0.10;;;;;;;7.21;100.00;102044.16;10376420;28;20120;-81
2023/04/26 21:31:15;;;;;;;0.00;0.00;;;;;;;7.32;100.00;102046.47;10376423;28;20057;-81
2023/04/26 21:36:17;;;;;;;0.90;0.43;;;;;;;6.94;100.00;102045.97;10378262;28;20034;-82
2023/04/26 21:41:19;;;;;;;0.00;0.00;;;;;;;6.84;100.00;102047.13;10368002;28;20050;-81
2023/04/26 21:46:20;;;;;;;0.95;0.80;;;;;;;6.77;100.00;102052.66;10370849;28;20515;-80
2023/04/26 21:51:22;;;;;;;0.03;0.00;;;;;;;6.71;100.00;102052.31;10354373;28;20057;-81
2023/04/26 21:56:23;;;;;;;0.00;0.00;;;;;;;6.46;100.00;102050.81;10388424;28;20117;-81
2023/04/26 22:01:25;;;;;;;0.00;0.00;;;;;;;6.02;100.00;102053.25;10378292;28;20124;-80
2023/04/26 22:06:27;;;;;;;0.00;0.00;;;;;;;6.36;100.00;102054.47;10366207;28;20137;-81
2023/04/26 22:11:29;;;;;;;0.30;0.22;;;;;;;6.58;100.00;102051.56;10363667;28;20146;-82
2023/04/26 22:16:30;;;;;;;0.20;0.20;;;;;;;6.64;100.00;102061.28;10391021;28;20068;-81
2023/04/26 22:21:32;;;;;;;0.00;0.00;;;;;;;6.56;100.00;102052.25;10402954;28;20092;-81
2023/04/26 22:26:34;;;;;;;0.10;0.10;;;;;;;6.51;100.00;102055.44;10404933;28;20107;-81
2023/04/26 22:31:35;;;;;;;0.00;0.00;;;;;;;6.37;100.00;102056.25;10383803;28;20105;-80
2023/04/26 22:36:37;;;;;;;0.10;0.10;;;;;;;6.33;100.00;102060.31;10377352;28;20040;-80
2023/04/26 22:41:39;;;;;;;0.08;0.08;;;;;;;6.12;100.00;102066.66;10372027;28;20057;-81
2023/04/26 22:46:40;;;;;;;0.10;0.10;;;;;;;6.06;100.00;102063.72;10387431;28;20100;-81
2023/04/26 22:51:42;;;;;;;0.25;0.20;;;;;;;6.09;100.00;102063.88;10381581;28;20045;-81
2023/04/26 22:56:58;;;;;;;0.10;0.10;;;;;;;6.18;100.00;102069.59;10378626;28;20100;-81
2023/04/26 23:02:00;;;;;;;0.80;0.43;;;;;;;6.29;100.00;102062.56;10385367;28;20065;-81
2023/04/26 23:07:02;;;;;;;0.03;0.00;;;;;;;5.89;100.00;102066.03;10372828;28;20056;-81
2023/04/26 23:12:04;;;;;;;0.00;0.00;;;;;;;6.07;100.00;102070.59;10367137;28;20046;-82